Time;durP1;ratioP1;P1;durP2;ratioP2;P2;SDS_P1;SDS_P2;PMS_P1;PMS_P2;Temp;Humidity;BMP_temperature;BMP_pressure;BME280_temperature;BME280_humidity;BME280_pressure;Samples;Min_cycle;Max_cycle;Signal;HPM_P1;HPM_P2
2023/12/25 00:04:29;;;;;;;8.57;3.90;;;;;11.10;100265.00;;;;10448792;28;20226;-87
2023/12/25 00:09:30;;;;;;;5.93;3.80;;;;;11.10;100271.00;;;;10435521;28;20687;-89
2023/12/25 00:14:31;;;;;;;6.87;3.83;;;;;11.10;100269.00;;;;10430984;28;20244;-87
2023/12/25 00:19:32;;;;;;;7.90;4.00;;;;;11.10;100268.00;;;;10454639;28;20251;-81
2023/12/25 00:24:34;;;;;;;5.87;3.20;;;;;11.10;100275.00;;;;10449760;28;20622;-82
2023/12/25 00:29:35;;;;;;;5.87;4.20;;;;;11.10;100286.00;;;;10427173;28;20308;-81
2023/12/25 00:34:36;;;;;;;7.17;4.03;;;;;11.10;100282.00;;;;10464656;28;20734;-81
2023/12/25 00:39:37;;;;;;;5.57;3.23;;;;;11.10;100278.00;;;;10445344;28;20274;-81
2023/12/25 00:44:39;;;;;;;3.93;3.40;;;;;11.10;100290.00;;;;10452081;28;20217;-81
2023/12/25 00:49:41;;;;;;;7.40;3.00;;;;;11.10;100281.00;;;;10450168;28;20276;-81
2023/12/25 00:54:42;;;;;;;4.23;2.30;;;;;11.10;100289.00;;;;10428886;28;20227;-81
2023/12/25 00:59:43;;;;;;;2.67;2.10;;;;;11.10;100302.00;;;;10434163;28;20278;-81
2023/12/25 01:04:44;;;;;;;4.77;2.10;;;;;11.10;100301.00;;;;10441731;28;20221;-81
2023/12/25 01:09:46;;;;;;;1.87;1.67;;;;;11.10;100302.00;;;;10432830;28;20240;-81
2023/12/25 01:14:47;;;;;;;2.00;1.80;;;;;11.10;100303.00;;;;10441544;28;20878;-81
2023/12/25 01:19:48;;;;;;;4.73;1.83;;;;;11.00;100300.00;;;;10425236;28;20226;-82
2023/12/25 01:24:49;;;;;;;3.73;1.80;;;;;11.10;100288.00;;;;10448730;28;20342;-83
2023/12/25 01:29:51;;;;;;;2.30;1.80;;;;;11.10;100295.00;;;;10437245;28;20229;-81
2023/12/25 01:34:52;;;;;;;5.50;2.07;;;;;11.10;100294.00;;;;10444837;28;20249;-81
2023/12/25 01:39:54;;;;;;;2.80;2.03;;;;;11.10;100317.00;;;;10455794;28;20229;-82
2023/12/25 01:44:55;;;;;;;4.00;1.93;;;;;11.10;100319.00;;;;10435574;28;20222;-81
2023/12/25 01:50:00;;;;;;;3.93;1.80;;;;;11.10;100320.00;;;;10469160;28;20806;-81
2023/12/25 01:55:02;;;;;;;4.00;2.40;;;;;11.10;100321.00;;;;10431962;28;20221;-81
2023/12/25 02:00:04;;;;;;;5.67;2.93;;;;;11.10;100332.00;;;;10445321;28;20831;-81
2023/12/25 02:05:25;;;;;;;5.17;2.07;;;;;11.20;100334.00;;;;10351054;28;20229;-77
2023/12/25 02:10:29;;;;;;;2.60;2.40;;;;;11.20;100350.00;;;;10360377;28;20227;-78
2023/12/25 02:15:30;;;;;;;7.40;2.73;;;;;11.20;100342.00;;;;10362981;28;20219;-77
2023/12/25 02:20:33;;;;;;;4.77;3.00;;;;;11.20;100337.00;;;;10360262;28;20262;-79
2023/12/25 02:25:40;;;;;;;5.20;3.07;;;;;11.20;100323.00;;;;10359828;28;20221;-77
2023/12/25 02:30:41;;;;;;;5.77;3.17;;;;;11.20;100330.00;;;;10341709;28;20244;-77
2023/12/25 02:35:43;;;;;;;3.53;2.40;;;;;11.20;100323.00;;;;10399663;28;20243;-78
2023/12/25 02:40:44;;;;;;;2.87;2.27;;;;;11.20;100321.00;;;;10438621;28;20225;-79
2023/12/25 02:45:45;;;;;;;2.53;2.17;;;;;11.10;100326.00;;;;10445372;28;20221;-78
2023/12/25 02:50:47;;;;;;;2.07;1.87;;;;;11.10;100334.00;;;;10446581;28;20232;-77
2023/12/25 02:55:48;;;;;;;2.80;1.63;;;;;11.10;100324.00;;;;10444258;28;20308;-78
2023/12/25 03:00:50;;;;;;;1.30;1.20;;;;;11.00;100325.00;;;;10449992;28;20233;-80
2023/12/25 03:05:51;;;;;;;3.80;1.70;;;;;11.00;100335.00;;;;10459307;28;20663;-79
2023/12/25 03:10:53;;;;;;;3.83;1.37;;;;;11.00;100341.00;;;;10452161;28;20218;-79
2023/12/25 03:15:54;;;;;;;0.93;0.93;;;;;11.00;100335.00;;;;10448954;28;20221;-80
2023/12/25 03:20:55;;;;;;;1.97;1.00;;;;;11.00;100339.00;;;;10454491;28;20214;-88
2023/12/25 03:25:57;;;;;;;1.30;1.20;;;;;10.90;100343.00;;;;10442934;28;20221;-86
2023/12/25 03:30:58;;;;;;;1.57;1.00;;;;;10.90;100343.00;;;;10424451;28;20221;-87
2023/12/25 03:35:59;;;;;;;0.90;0.83;;;;;10.90;100335.00;;;;10436663;28;20859;-88
2023/12/25 03:41:01;;;;;;;1.10;1.00;;;;;10.90;100321.00;;;;10444108;28;20217;-87
2023/12/25 03:46:02;;;;;;;0.93;0.90;;;;;10.90;100336.00;;;;10442180;28;20226;-87
2023/12/25 03:51:03;;;;;;;0.70;0.70;;;;;10.90;100321.00;;;;10432507;28;20214;-88
2023/12/25 03:56:06;;;;;;;1.40;0.73;;;;;10.90;100324.00;;;;10444340;28;20308;-89
2023/12/25 04:01:07;;;;;;;0.80;0.80;;;;;10.90;100331.00;;;;10436311;28;20225;-86
2023/12/25 04:06:08;;;;;;;1.83;0.83;;;;;10.80;100325.00;;;;10438897;28;20609;-88
2023/12/25 04:11:18;;;;;;;1.03;0.80;;;;;10.80;100321.00;;;;10446996;28;20226;-86
2023/12/25 04:16:20;;;;;;;0.80;0.80;;;;;10.80;100326.00;;;;10448346;28;20227;-87
2023/12/25 04:21:31;;;;;;;1.00;0.90;;;;;10.80;100317.00;;;;10453575;28;20287;-85
2023/12/25 04:26:32;;;;;;;1.57;1.00;;;;;10.80;100316.00;;;;10436656;28;20243;-87
2023/12/25 04:31:33;;;;;;;0.90;0.90;;;;;10.80;100320.00;;;;10432726;28;20252;-83
2023/12/25 04:36:35;;;;;;;0.80;0.80;;;;;10.80;100313.00;;;;10465071;28;20304;-83
2023/12/25 04:41:36;;;;;;;2.00;0.70;;;;;10.80;100313.00;;;;10464098;28;20300;-84
2023/12/25 04:46:39;;;;;;;1.23;0.73;;;;;10.80;100310.00;;;;10426244;28;20221;-83
2023/12/25 04:51:41;;;;;;;0.97;0.70;;;;;10.80;100301.00;;;;10447469;28;20267;-82
2023/12/25 04:56:42;;;;;;;0.83;0.83;;;;;10.80;100315.00;;;;10417237;28;20256;-82
2023/12/25 05:01:43;;;;;;;0.90;0.90;;;;;10.80;100309.00;;;;10456065;28;20229;-83
2023/12/25 05:06:44;;;;;;;1.00;0.80;;;;;10.80;100308.00;;;;10453188;28;20602;-82
2023/12/25 05:11:46;;;;;;;1.23;1.00;;;;;10.70;100302.00;;;;10427439;28;20222;-84
2023/12/25 05:16:47;;;;;;;0.73;0.73;;;;;10.70;100296.00;;;;10450464;28;20216;-84
2023/12/25 05:21:48;;;;;;;1.80;0.90;;;;;10.70;100301.00;;;;10442483;28;20249;-83
2023/12/25 05:26:50;;;;;;;0.77;0.77;;;;;10.80;100301.00;;;;10385992;28;21293;-83
2023/12/25 05:31:51;;;;;;;3.33;0.93;;;;;10.70;100308.00;;;;10390991;28;20219;-82
2023/12/25 05:36:52;;;;;;;1.63;0.60;;;;;10.70;100301.00;;;;10394601;28;20795;-84
2023/12/25 05:41:54;;;;;;;0.70;0.70;;;;;10.70;100311.00;;;;10381200;28;20226;-81
2023/12/25 05:46:55;;;;;;;1.43;0.67;;;;;10.70;100312.00;;;;10408745;28;20276;-81
2023/12/25 05:51:57;;;;;;;1.87;0.80;;;;;10.80;100319.00;;;;10407259;28;20255;-80
2023/12/25 05:56:58;;;;;;;1.90;0.70;;;;;10.80;100315.00;;;;10439484;28;21455;-80
2023/12/25 06:02:00;;;;;;;1.13;0.60;;;;;10.80;100321.00;;;;10421670;28;20228;-80
2023/12/25 06:07:02;;;;;;;1.60;0.67;;;;;10.80;100325.00;;;;10420635;28;20225;-81
2023/12/25 06:12:04;;;;;;;1.03;0.70;;;;;10.80;100331.00;;;;10419963;28;20569;-81
2023/12/25 06:17:05;;;;;;;1.73;0.80;;;;;10.80;100323.00;;;;10433755;28;20320;-80
2023/12/25 06:22:06;;;;;;;0.83;0.60;;;;;10.80;100330.00;;;;10406695;28;20308;-81
2023/12/25 06:27:07;;;;;;;1.40;0.70;;;;;10.80;100320.00;;;;10432014;28;20248;-80
2023/12/25 06:32:08;;;;;;;0.60;0.50;;;;;10.80;100319.00;;;;10437050;28;20350;-80
2023/12/25 06:37:10;;;;;;;0.97;0.43;;;;;10.80;100322.00;;;;10398128;28;20242;-81
2023/12/25 06:42:11;;;;;;;0.60;0.60;;;;;10.80;100321.00;;;;10419908;28;20225;-80
2023/12/25 06:47:12;;;;;;;2.43;0.70;;;;;10.80;100322.00;;;;10425813;28;20378;-80
2023/12/25 06:52:13;;;;;;;2.07;0.77;;;;;10.80;100312.00;;;;10392022;28;20225;-81
2023/12/25 06:57:15;;;;;;;1.37;0.50;;;;;10.80;100312.00;;;;10375847;28;22082;-82
2023/12/25 07:02:16;;;;;;;0.80;0.70;;;;;10.90;100319.00;;;;10366162;28;20233;-82
2023/12/25 07:07:17;;;;;;;0.80;0.70;;;;;10.90;100325.00;;;;10378085;28;20787;-82
2023/12/25 07:12:18;;;;;;;0.70;0.70;;;;;10.90;100322.00;;;;10427703;28;20221;-81
2023/12/25 07:17:19;;;;;;;0.60;0.60;;;;;10.90;100330.00;;;;10414511;28;20224;-82
2023/12/25 07:22:21;;;;;;;0.60;0.60;;;;;10.90;100325.00;;;;10439355;28;20218;-81
2023/12/25 07:27:22;;;;;;;2.37;0.50;;;;;10.90;100346.00;;;;10414188;28;20301;-81
2023/12/25 07:32:23;;;;;;;0.30;0.30;;;;;10.90;100343.00;;;;10417138;28;20253;-82
2023/12/25 07:37:27;;;;;;;1.23;0.50;;;;;10.90;100350.00;;;;10386761;28;20229;-80
2023/12/25 07:42:28;;;;;;;0.97;0.43;;;;;10.90;100358.00;;;;10443052;28;20217;-82
2023/12/25 07:47:29;;;;;;;0.30;0.30;;;;;10.90;100335.00;;;;10381209;28;20825;-81
2023/12/25 07:52:31;;;;;;;0.40;0.40;;;;;10.90;100347.00;;;;10394949;28;20304;-82
2023/12/25 07:57:32;;;;;;;0.50;0.50;;;;;10.90;100355.00;;;;10418896;28;20217;-80
2023/12/25 08:02:33;;;;;;;0.50;0.50;;;;;10.90;100362.00;;;;10434194;28;20220;-83
2023/12/25 08:07:34;;;;;;;0.57;0.57;;;;;10.90;100367.00;;;;10421017;28;20213;-84
2023/12/25 08:12:35;;;;;;;0.50;0.50;;;;;10.90;100367.00;;;;10438899;28;20267;-83
2023/12/25 08:17:37;;;;;;;1.10;0.70;;;;;11.00;100367.00;;;;10421004;28;20217;-83
2023/12/25 08:22:38;;;;;;;0.70;0.70;;;;;11.00;100382.00;;;;10431810;28;21008;-83
2023/12/25 08:27:40;;;;;;;0.90;0.90;;;;;11.00;100372.00;;;;10404342;28;20244;-84
2023/12/25 08:32:41;;;;;;;1.00;0.90;;;;;11.10;100366.00;;;;10430703;28;20752;-84
2023/12/25 08:37:42;;;;;;;1.20;1.10;;;;;11.10;100370.00;;;;10415459;28;20282;-83
2023/12/25 08:42:43;;;;;;;7.03;1.73;;;;;11.20;100369.00;;;;10414257;28;20222;-84
2023/12/25 08:47:44;;;;;;;1.80;1.70;;;;;11.20;100369.00;;;;10408359;28;20235;-83
2023/12/25 08:52:46;;;;;;;3.90;1.20;;;;;11.30;100356.00;;;;10420381;28;20267;-82
2023/12/25 08:57:47;;;;;;;1.40;1.30;;;;;11.30;100354.00;;;;10438873;28;20221;-83
2023/12/25 09:02:48;;;;;;;1.23;1.20;;;;;11.40;100348.00;;;;10413362;28;20212;-84
2023/12/25 09:07:49;;;;;;;2.10;1.27;;;;;11.40;100361.00;;;;10432012;28;20238;-84
2023/12/25 09:12:51;;;;;;;1.70;1.60;;;;;11.50;100367.00;;;;10437800;28;20227;-85
2023/12/25 09:17:52;;;;;;;1.53;1.43;;;;;11.50;100373.00;;;;10439880;28;20229;-86
2023/12/25 09:22:53;;;;;;;1.80;1.70;;;;;11.50;100396.00;;;;10432962;28;20227;-85
2023/12/25 09:27:55;;;;;;;1.90;1.77;;;;;11.50;100413.00;;;;10422626;28;20671;-84
2023/12/25 09:32:56;;;;;;;2.10;2.00;;;;;11.60;100417.00;;;;10449415;28;20293;-85
2023/12/25 09:37:58;;;;;;;3.80;2.40;;;;;11.60;100413.00;;;;10414787;28;20225;-84
2023/12/25 09:43:04;;;;;;;2.70;2.10;;;;;11.70;100423.00;;;;10443257;28;20220;-85
2023/12/25 09:48:07;;;;;;;3.77;2.47;;;;;11.70;100420.00;;;;10420902;28;20213;-86
2023/12/25 09:53:08;;;;;;;2.60;2.40;;;;;11.70;100449.00;;;;10429603;28;20247;-85
2023/12/25 09:58:14;;;;;;;2.30;2.10;;;;;11.70;100457.00;;;;10412921;28;20217;-86
2023/12/25 10:03:17;;;;;;;3.37;2.40;;;;;11.70;100447.00;;;;10436397;28;20223;-85
2023/12/25 10:08:18;;;;;;;4.57;3.30;;;;;11.60;100469.00;;;;10413750;28;20221;-84
2023/12/25 10:13:19;;;;;;;2.80;2.60;;;;;11.60;100457.00;;;;10430458;28;20245;-84
2023/12/25 10:18:20;;;;;;;3.63;2.43;;;;;11.70;100454.00;;;;10412571;28;20256;-81
2023/12/25 10:23:33;;;;;;;2.80;2.60;;;;;11.60;100450.00;;;;10427703;28;20809;-81
2023/12/25 10:28:34;;;;;;;2.63;2.43;;;;;11.60;100457.00;;;;10425271;28;20224;-80
2023/12/25 10:33:36;;;;;;;3.30;2.80;;;;;11.60;100453.00;;;;10409723;28;20295;-80
2023/12/25 10:38:42;;;;;;;3.83;3.53;;;;;11.60;100454.00;;;;10442706;28;20758;-80
2023/12/25 10:43:48;;;;;;;3.47;3.17;;;;;11.60;100445.00;;;;10415056;28;20218;-80
2023/12/25 10:48:52;;;;;;;3.15;2.83;;;;;11.60;100456.00;;;;10423524;28;20291;-82
2023/12/25 10:54:05;;;;;;;3.40;2.53;;;;;11.70;100452.00;;;;10427542;28;21041;-83
2023/12/25 10:59:15;;;;;;;3.27;2.97;;;;;11.70;100452.00;;;;10408885;28;20224;-83
2023/12/25 11:04:17;;;;;;;2.50;2.30;;;;;11.80;100450.00;;;;10416958;28;20301;-82
2023/12/25 11:09:22;;;;;;;2.67;2.47;;;;;11.80;100429.00;;;;10384841;28;20498;-82
2023/12/25 11:14:25;;;;;;;3.00;2.70;;;;;12.00;100422.00;;;;10441858;28;20546;-82
2023/12/25 11:19:26;;;;;;;1.90;1.80;;;;;12.00;100426.00;;;;10445622;28;20292;-80
2023/12/25 11:24:28;;;;;;;2.17;1.97;;;;;11.90;100439.00;;;;10423829;28;20221;-84
2023/12/25 11:29:30;;;;;;;2.60;1.77;;;;;11.80;100429.00;;;;10453084;28;20275;-82
2023/12/25 11:34:38;;;;;;;1.33;1.23;;;;;11.80;100426.00;;;;10445225;28;20244;-84
2023/12/25 11:39:51;;;;;;;2.27;1.57;;;;;11.80;100421.00;;;;10426709;28;20230;-83
2023/12/25 11:44:59;;;;;;;1.67;1.10;;;;;11.80;100420.00;;;;10451143;28;20252;-83
2023/12/25 11:50:00;;;;;;;1.20;1.10;;;;;11.70;100425.00;;;;10436369;28;20217;-83
2023/12/25 11:55:03;;;;;;;1.57;1.37;;;;;11.60;100436.00;;;;10443807;28;21041;-84
2023/12/25 12:00:05;;;;;;;1.20;1.10;;;;;11.50;100426.00;;;;10450942;28;20249;-84
2023/12/25 12:05:13;;;;;;;1.80;1.17;;;;;11.50;100420.00;;;;10453111;28;20229;-84
2023/12/25 12:10:14;;;;;;;2.10;1.90;;;;;11.50;100411.00;;;;10436368;28;20858;-84
2023/12/25 12:15:16;;;;;;;1.70;1.60;;;;;11.50;100410.00;;;;10423137;28;20218;-83
2023/12/25 12:20:17;;;;;;;1.83;1.73;;;;;11.60;100414.00;;;;10443906;28;20229;-84
2023/12/25 12:25:19;;;;;;;3.50;1.70;;;;;11.50;100414.00;;;;10440199;28;20276;-84
2023/12/25 12:30:20;;;;;;;2.63;2.20;;;;;11.60;100417.00;;;;10436948;28;20319;-84
2023/12/25 12:35:22;;;;;;;2.93;2.00;;;;;11.60;100410.00;;;;10477037;28;20217;-82
2023/12/25 12:40:24;;;;;;;2.20;2.00;;;;;11.70;100409.00;;;;10438221;28;20225;-84
2023/12/25 12:45:25;;;;;;;2.47;2.27;;;;;11.70;100403.00;;;;10438430;28;20276;-85
2023/12/25 12:50:27;;;;;;;2.23;1.70;;;;;11.80;100398.00;;;;10425589;28;20300;-85
2023/12/25 12:55:30;;;;;;;1.90;1.70;;;;;11.90;100399.00;;;;10442745;28;20221;-82
2023/12/25 13:00:31;;;;;;;2.27;2.07;;;;;11.90;100397.00;;;;10449248;28;20588;-79
2023/12/25 13:05:34;;;;;;;4.20;1.70;;;;;11.90;100390.00;;;;10399168;28;20689;-79
2023/12/25 13:10:36;;;;;;;3.35;2.45;;;;;11.90;100398.00;;;;10411614;28;20209;-81
2023/12/25 13:15:37;;;;;;;3.43;2.80;;;;;11.90;100400.00;;;;10399392;28;20218;-80
2023/12/25 13:20:39;;;;;;;2.20;2.10;;;;;11.90;100399.00;;;;10409866;28;20237;-82
2023/12/25 13:25:40;;;;;;;2.70;2.50;;;;;11.90;100393.00;;;;10385250;28;20334;-81
2023/12/25 13:30:41;;;;;;;3.37;2.70;;;;;11.80;100394.00;;;;10388930;28;20237;-81
2023/12/25 13:35:42;;;;;;;3.15;2.60;;;;;11.80;100394.00;;;;10424062;28;20228;-80
2023/12/25 13:40:44;;;;;;;2.67;2.47;;;;;11.80;100403.00;;;;10397555;28;20321;-78
2023/12/25 13:45:45;;;;;;;2.30;2.10;;;;;11.70;100400.00;;;;10400481;28;20246;-80
2023/12/25 13:50:47;;;;;;;3.13;2.13;;;;;11.60;100411.00;;;;10404436;28;20238;-81
2023/12/25 13:55:49;;;;;;;2.42;2.05;;;;;11.60;100404.00;;;;10394653;28;20317;-80
2023/12/25 14:00:50;;;;;;;4.20;2.23;;;;;11.60;100409.00;;;;10389422;28;20226;-80
2023/12/25 14:05:52;;;;;;;2.50;2.30;;;;;11.60;100401.00;;;;10394819;28;20748;-79
2023/12/25 14:10:53;;;;;;;2.45;2.25;;;;;11.50;100406.00;;;;10393279;28;20233;-80
2023/12/25 14:15:54;;;;;;;4.53;2.67;;;;;11.50;100401.00;;;;10398968;28;20225;-81
2023/12/25 14:20:56;;;;;;;3.73;2.97;;;;;11.50;100401.00;;;;10415699;28;20894;-80
2023/12/25 14:25:57;;;;;;;3.00;2.57;;;;;11.50;100399.00;;;;10415327;28;20212;-80
2023/12/25 14:30:58;;;;;;;4.67;2.63;;;;;11.50;100391.00;;;;10415962;28;20281;-81
2023/12/25 14:35:59;;;;;;;2.33;2.13;;;;;11.50;100396.00;;;;10409636;28;20292;-80
2023/12/25 14:41:02;;;;;;;1.80;1.70;;;;;11.50;100391.00;;;;10388865;28;20222;-80
2023/12/25 14:46:03;;;;;;;3.20;1.60;;;;;11.50;100387.00;;;;10407274;28;20230;-79
2023/12/25 14:51:17;;;;;;;1.70;1.00;;;;;11.50;100388.00;;;;10390937;28;20301;-80
2023/12/25 14:56:18;;;;;;;1.00;0.90;;;;;11.50;100392.00;;;;10416211;28;20332;-79
2023/12/25 15:01:19;;;;;;;0.90;0.90;;;;;11.50;100392.00;;;;10395924;28;20248;-80
2023/12/25 15:06:24;;;;;;;1.13;1.03;;;;;11.50;100384.00;;;;10395513;28;20229;-80
2023/12/25 15:11:26;;;;;;;1.40;1.17;;;;;11.50;100387.00;;;;10396752;28;20248;-79
2023/12/25 15:16:27;;;;;;;1.07;0.97;;;;;11.40;100386.00;;;;10410210;28;20217;-79
2023/12/25 15:21:29;;;;;;;3.97;2.50;;;;;11.40;100384.00;;;;10349836;28;20222;-84
2023/12/25 15:26:30;;;;;;;1.40;1.30;;;;;11.40;100385.00;;;;10398472;28;20221;-84
2023/12/25 15:31:32;;;;;;;1.67;1.43;;;;;11.40;100387.00;;;;10375433;28;20226;-83
2023/12/25 15:36:33;;;;;;;1.30;1.20;;;;;11.40;100387.00;;;;10408741;28;20222;-84
2023/12/25 15:41:34;;;;;;;1.30;1.20;;;;;11.40;100377.00;;;;10364781;28;20234;-84
2023/12/25 15:46:37;;;;;;;2.07;1.27;;;;;11.40;100386.00;;;;10333894;28;20249;-84
2023/12/25 15:51:38;;;;;;;1.93;1.13;;;;;11.30;100387.00;;;;10346708;28;20226;-85
2023/12/25 15:56:39;;;;;;;1.47;1.37;;;;;11.30;100386.00;;;;10339588;28;20261;-83
2023/12/25 16:01:40;;;;;;;1.10;1.00;;;;;11.30;100388.00;;;;10350272;28;20311;-85
2023/12/25 16:06:42;;;;;;;1.07;0.97;;;;;11.30;100388.00;;;;10367997;28;20301;-84
2023/12/25 16:11:44;;;;;;;2.00;1.20;;;;;11.30;100386.00;;;;10388292;28;20230;-84
2023/12/25 16:16:45;;;;;;;2.07;1.20;;;;;11.30;100397.00;;;;10345351;28;20323;-83
2023/12/25 16:21:47;;;;;;;1.50;1.30;;;;;11.30;100401.00;;;;10359530;28;21787;-84
2023/12/25 16:26:48;;;;;;;1.53;1.30;;;;;11.30;100389.00;;;;10360145;28;20319;-85
2023/12/25 16:31:49;;;;;;;1.77;1.30;;;;;11.30;100391.00;;;;10361967;28;20214;-80
2023/12/25 16:36:51;;;;;;;1.60;1.50;;;;;11.30;100388.00;;;;10368146;28;20734;-81
2023/12/25 16:41:52;;;;;;;1.70;1.60;;;;;11.30;100395.00;;;;10347520;28;20239;-80
2023/12/25 16:46:53;;;;;;;1.57;1.47;;;;;11.20;100392.00;;;;10342509;28;20685;-79
2023/12/25 16:51:54;;;;;;;2.53;1.67;;;;;11.20;100391.00;;;;10369563;28;20234;-79
2023/12/25 16:56:56;;;;;;;1.93;1.63;;;;;11.20;100391.00;;;;10371225;28;20228;-80
2023/12/25 17:01:57;;;;;;;3.20;2.90;;;;;11.20;100396.00;;;;10387197;28;20304;-80
2023/12/25 17:06:58;;;;;;;2.73;2.50;;;;;11.20;100393.00;;;;10366591;28;20222;-81
2023/12/25 17:11:59;;;;;;;4.23;2.83;;;;;11.20;100389.00;;;;10372936;28;20249;-80
2023/12/25 17:17:10;;;;;;;4.83;2.67;;;;;11.20;100388.00;;;;10345561;28;20227;-81
2023/12/25 17:22:11;;;;;;;3.10;2.80;;;;;11.20;100390.00;;;;10360887;28;20249;-81
2023/12/25 17:27:13;;;;;;;3.17;2.63;;;;;11.10;100390.00;;;;10388495;28;20214;-81
2023/12/25 17:32:19;;;;;;;4.00;2.87;;;;;11.10;100394.00;;;;10381925;28;20303;-81
2023/12/25 17:37:20;;;;;;;2.97;2.67;;;;;11.10;100388.00;;;;10384261;28;20500;-81
2023/12/25 17:42:22;;;;;;;2.90;2.70;;;;;11.10;100392.00;;;;10380692;28;20250;-80
2023/12/25 17:47:23;;;;;;;3.73;2.80;;;;;11.10;100389.00;;;;10392468;28;20210;-81
2023/12/25 17:52:25;;;;;;;2.90;2.57;;;;;11.10;100395.00;;;;10409580;28;20304;-80
2023/12/25 17:57:26;;;;;;;2.73;2.30;;;;;11.10;100391.00;;;;10397262;28;20218;-80
2023/12/25 18:02:28;;;;;;;2.80;2.20;;;;;11.10;100385.00;;;;10390752;28;20214;-81
2023/12/25 18:07:29;;;;;;;2.80;2.40;;;;;11.10;100382.00;;;;10400770;28;20799;-81
2023/12/25 18:12:30;;;;;;;3.30;2.33;;;;;11.10;100381.00;;;;10373958;28;20238;-81
2023/12/25 18:17:31;;;;;;;2.43;2.23;;;;;11.10;100378.00;;;;10365842;28;20257;-81
2023/12/25 18:22:33;;;;;;;2.30;2.10;;;;;11.00;100375.00;;;;10403121;28;20214;-81
2023/12/25 18:27:34;;;;;;;2.43;1.93;;;;;11.10;100376.00;;;;10395264;28;20241;-80
2023/12/25 18:32:36;;;;;;;3.20;2.00;;;;;11.00;100383.00;;;;10385809;28;20267;-81
2023/12/25 18:37:37;;;;;;;2.67;2.10;;;;;11.00;100377.00;;;;10368616;28;20235;-80
2023/12/25 18:42:38;;;;;;;2.13;1.90;;;;;11.10;100368.00;;;;10375007;28;20276;-81
2023/12/25 18:47:40;;;;;;;3.90;2.33;;;;;11.00;100377.00;;;;10350464;28;20580;-80
2023/12/25 18:52:42;;;;;;;2.57;2.33;;;;;11.00;100352.00;;;;10359218;28;20219;-86
2023/12/25 18:57:43;;;;;;;4.53;2.73;;;;;11.00;100361.00;;;;10372649;28;20214;-86
2023/12/25 19:02:44;;;;;;;2.40;2.20;;;;;11.10;100359.00;;;;10379929;28;20211;-85
2023/12/25 19:07:45;;;;;;;2.23;2.03;;;;;11.10;100358.00;;;;10376923;28;20229;-86
2023/12/25 19:12:46;;;;;;;2.40;1.83;;;;;11.00;100352.00;;;;10407042;28;20217;-86
2023/12/25 19:17:48;;;;;;;2.63;2.10;;;;;11.00;100355.00;;;;10404327;28;20214;-86
2023/12/25 19:22:52;;;;;;;3.27;2.40;;;;;11.10;100345.00;;;;10387347;28;20258;-86
2023/12/25 19:27:54;;;;;;;2.57;2.03;;;;;11.00;100349.00;;;;10422805;28;20222;-85
2023/12/25 19:32:56;;;;;;;3.27;2.33;;;;;11.00;100337.00;;;;10412270;28;20229;-86
2023/12/25 19:38:11;;;;;;;1.70;1.57;;;;;11.00;100337.00;;;;10417897;28;20288;-85
2023/12/25 19:43:13;;;;;;;3.87;2.10;;;;;11.00;100346.00;;;;10418760;28;20727;-86
2023/12/25 19:48:14;;;;;;;4.17;2.00;;;;;11.00;100336.00;;;;10420912;28;20214;-86
2023/12/25 19:53:15;;;;;;;2.90;1.80;;;;;11.00;100334.00;;;;10400500;28;20212;-86
2023/12/25 19:58:16;;;;;;;2.93;1.60;;;;;11.00;100335.00;;;;10412528;28;20218;-86
2023/12/25 20:03:18;;;;;;;3.07;2.07;;;;;11.00;100323.00;;;;10393019;28;20221;-82
2023/12/25 20:08:19;;;;;;;4.37;2.00;;;;;11.00;100319.00;;;;10371889;28;20296;-82
2023/12/25 20:13:20;;;;;;;2.33;1.90;;;;;11.00;100303.00;;;;10379536;28;20249;-82
2023/12/25 20:18:24;;;;;;;2.43;1.90;;;;;11.00;100303.00;;;;10374544;28;20230;-82
2023/12/25 20:23:26;;;;;;;2.50;1.70;;;;;11.00;100297.00;;;;10383190;28;20600;-83
2023/12/25 20:28:27;;;;;;;2.03;1.70;;;;;11.00;100304.00;;;;10341237;28;20223;-82
2023/12/25 20:33:29;;;;;;;1.40;1.30;;;;;11.00;100292.00;;;;10375038;28;20219;-83
2023/12/25 20:38:30;;;;;;;1.40;1.30;;;;;11.00;100301.00;;;;10383795;28;20712;-84
2023/12/25 20:43:31;;;;;;;1.73;1.50;;;;;11.00;100304.00;;;;10379779;28;20306;-82
2023/12/25 20:48:33;;;;;;;2.67;1.83;;;;;11.00;100316.00;;;;10372471;28;20228;-82
2023/12/25 20:53:34;;;;;;;3.40;1.93;;;;;10.90;100316.00;;;;10383628;28;20248;-82
2023/12/25 20:58:37;;;;;;;2.27;2.03;;;;;10.90;100309.00;;;;10394392;28;20225;-83
2023/12/25 21:03:39;;;;;;;3.40;1.73;;;;;10.90;100313.00;;;;10360965;28;20299;-83
2023/12/25 21:08:40;;;;;;;3.07;2.63;;;;;11.00;100316.00;;;;10338091;28;20269;-80
2023/12/25 21:13:41;;;;;;;1.73;1.53;;;;;10.90;100298.00;;;;10326656;28;21044;-80
2023/12/25 21:18:43;;;;;;;2.60;2.23;;;;;10.90;100302.00;;;;10390885;28;20246;-81
2023/12/25 21:23:45;;;;;;;2.40;2.20;;;;;10.90;100307.00;;;;10398771;28;20221;-79
2023/12/25 21:28:46;;;;;;;3.63;2.13;;;;;10.90;100302.00;;;;10379280;28;20233;-80
2023/12/25 21:33:48;;;;;;;2.70;1.90;;;;;10.80;100292.00;;;;10382820;28;20217;-79
2023/12/25 21:38:49;;;;;;;2.43;1.93;;;;;10.80;100295.00;;;;10384622;28;20225;-79
2023/12/25 21:43:51;;;;;;;3.30;2.17;;;;;10.80;100309.00;;;;10354037;28;20223;-80
2023/12/25 21:48:52;;;;;;;4.10;2.43;;;;;10.80;100296.00;;;;10358542;28;20220;-79
2023/12/25 21:53:53;;;;;;;2.93;2.60;;;;;10.80;100294.00;;;;10396876;28;20904;-79
2023/12/25 21:58:55;;;;;;;3.93;2.63;;;;;10.80;100299.00;;;;10373881;28;20430;-79
2023/12/25 22:03:56;;;;;;;3.27;2.53;;;;;10.80;100312.00;;;;10376318;28;20229;-81
2023/12/25 22:08:58;;;;;;;3.40;3.10;;;;;10.80;100313.00;;;;10400303;28;20222;-79
2023/12/25 22:13:59;;;;;;;2.83;2.37;;;;;10.80;100324.00;;;;10387825;28;20229;-79
2023/12/25 22:19:01;;;;;;;2.97;2.67;;;;;10.80;100322.00;;;;10372129;28;20258;-84
2023/12/25 22:24:03;;;;;;;4.37;2.77;;;;;10.80;100325.00;;;;10399534;28;20255;-85
2023/12/25 22:29:04;;;;;;;2.40;2.20;;;;;10.80;100322.00;;;;10400545;28;20237;-83
2023/12/25 22:34:05;;;;;;;3.33;2.10;;;;;10.90;100342.00;;;;10391029;28;20264;-86
2023/12/25 22:39:07;;;;;;;3.00;2.20;;;;;10.80;100335.00;;;;10395406;28;20260;-84
2023/12/25 22:44:08;;;;;;;2.93;2.40;;;;;10.80;100336.00;;;;10382340;28;20238;-83
2023/12/25 22:49:10;;;;;;;3.63;2.10;;;;;10.70;100335.00;;;;10371124;28;20257;-81
2023/12/25 22:54:11;;;;;;;2.93;2.50;;;;;10.60;100339.00;;;;10374104;28;20236;-84
2023/12/25 22:59:13;;;;;;;7.03;2.70;;;;;10.50;100319.00;;;;10381901;28;20222;-84
2023/12/25 23:04:14;;;;;;;4.10;2.30;;;;;10.50;100313.00;;;;10382346;28;20214;-85
2023/12/25 23:09:15;;;;;;;5.63;2.20;;;;;10.40;100309.00;;;;10383617;28;20222;-86
2023/12/25 23:14:16;;;;;;;4.23;2.17;;;;;10.40;100309.00;;;;10402896;28;20219;-82
2023/12/25 23:19:18;;;;;;;2.57;1.87;;;;;10.40;100302.00;;;;10396996;28;20245;-85
2023/12/25 23:24:19;;;;;;;2.57;1.80;;;;;10.40;100300.00;;;;10395377;28;20235;-85
2023/12/25 23:29:20;;;;;;;3.73;1.80;;;;;10.50;100300.00;;;;10380467;28;20224;-86
2023/12/25 23:34:22;;;;;;;3.67;1.70;;;;;10.50;100299.00;;;;10380239;28;20223;-83
2023/12/25 23:39:39;;;;;;;3.00;2.03;;;;;10.50;100290.00;;;;10397762;28;20233;-83
2023/12/25 23:44:40;;;;;;;2.93;2.03;;;;;10.50;100288.00;;;;10369217;28;20227;-87
2023/12/25 23:49:41;;;;;;;5.43;1.90;;;;;10.40;100293.00;;;;10335219;28;20986;-84
2023/12/25 23:54:43;;;;;;;3.10;1.80;;;;;10.40;100294.00;;;;10353601;28;20214;-82
2023/12/25 23:59:44;;;;;;;4.60;1.57;;;;;10.40;100286.00;;;;10357540;28;20239;-86
